sensor_id;sensor_type;location;lat;lon;timestamp;temperature;humidity
20376;DHT22;10347;51.828;6.466;2022-10-22T00:01:13;16.40;99.90
20376;DHT22;10347;51.828;6.466;2022-10-22T00:03:39;16.40;99.90
20376;DHT22;10347;51.828;6.466;2022-10-22T00:06:05;16.30;99.90
20376;DHT22;10347;51.828;6.466;2022-10-22T00:08:31;16.30;99.90
20376;DHT22;10347;51.828;6.466;2022-10-22T00:10:57;16.30;99.90
20376;DHT22;10347;51.828;6.466;2022-10-22T00:13:22;16.30;99.90
20376;DHT22;10347;51.828;6.466;2022-10-22T00:15:48;16.30;99.90
20376;DHT22;10347;51.828;6.466;2022-10-22T00:18:14;16.30;99.90
20376;DHT22;10347;51.828;6.466;2022-10-22T00:20:40;16.20;99.90
20376;DHT22;10347;51.828;6.466;2022-10-22T00:23:05;16.30;99.90
20376;DHT22;10347;51.828;6.466;2022-10-22T00:25:33;16.20;99.90
20376;DHT22;10347;51.828;6.466;2022-10-22T00:27:59;16.20;99.90
20376;DHT22;10347;51.828;6.466;2022-10-22T00:30:25;16.10;99.90
20376;DHT22;10347;51.828;6.466;2022-10-22T00:32:51;16.20;99.90
20376;DHT22;10347;51.828;6.466;2022-10-22T00:35:16;16.20;99.90
20376;DHT22;10347;51.828;6.466;2022-10-22T00:37:42;16.20;99.90
20376;DHT22;10347;51.828;6.466;2022-10-22T00:40:08;16.20;99.90
20376;DHT22;10347;51.828;6.466;2022-10-22T00:42:34;16.20;99.90
20376;DHT22;10347;51.828;6.466;2022-10-22T00:45:04;16.20;99.90
20376;DHT22;10347;51.828;6.466;2022-10-22T00:50:07;16.20;99.90
20376;DHT22;10347;51.828;6.466;2022-10-22T00:52:33;16.20;99.90
20376;DHT22;10347;51.828;6.466;2022-10-22T00:54:59;16.10;99.90
20376;DHT22;10347;51.828;6.466;2022-10-22T00:57:26;16.20;99.90
20376;DHT22;10347;51.828;6.466;2022-10-22T00:59:53;16.10;99.90
20376;DHT22;10347;51.828;6.466;2022-10-22T01:02:20;16.10;99.90
20376;DHT22;10347;51.828;6.466;2022-10-22T01:04:45;16.10;99.90
20376;DHT22;10347;51.828;6.466;2022-10-22T01:07:16;16.10;99.90
20376;DHT22;10347;51.828;6.466;2022-10-22T01:18:23;16.00;99.90
20376;DHT22;10347;51.828;6.466;2022-10-22T01:21:07;16.00;99.90
20376;DHT22;10347;51.828;6.466;2022-10-22T01:23:51;16.00;99.90
20376;DHT22;10347;51.828;6.466;2022-10-22T01:29:25;16.00;99.90
20376;DHT22;10347;51.828;6.466;2022-10-22T01:31:55;16.00;99.90
20376;DHT22;10347;51.828;6.466;2022-10-22T01:34:23;16.00;99.90
20376;DHT22;10347;51.828;6.466;2022-10-22T01:36:51;16.00;99.90
20376;DHT22;10347;51.828;6.466;2022-10-22T01:39:18;16.00;99.90
20376;DHT22;10347;51.828;6.466;2022-10-22T01:41:45;15.90;99.90
20376;DHT22;10347;51.828;6.466;2022-10-22T01:44:27;15.90;99.90
20376;DHT22;10347;51.828;6.466;2022-10-22T01:49:52;15.90;99.90
20376;DHT22;10347;51.828;6.466;2022-10-22T01:58:17;15.90;99.90
20376;DHT22;10347;51.828;6.466;2022-10-22T02:00:55;15.90;99.90
20376;DHT22;10347;51.828;6.466;2022-10-22T02:03:28;15.90;99.90
20376;DHT22;10347;51.828;6.466;2022-10-22T02:05:58;15.90;99.90
20376;DHT22;10347;51.828;6.466;2022-10-22T02:08:30;15.80;99.90
20376;DHT22;10347;51.828;6.466;2022-10-22T02:10:57;15.80;99.90
20376;DHT22;10347;51.828;6.466;2022-10-22T02:13:29;15.80;99.90
20376;DHT22;10347;51.828;6.466;2022-10-22T02:15:57;15.80;99.90
20376;DHT22;10347;51.828;6.466;2022-10-22T02:18:27;15.80;99.90
20376;DHT22;10347;51.828;6.466;2022-10-22T02:20:54;15.80;99.90
20376;DHT22;10347;51.828;6.466;2022-10-22T02:23:20;15.80;99.90
20376;DHT22;10347;51.828;6.466;2022-10-22T02:25:50;15.80;99.90
20376;DHT22;10347;51.828;6.466;2022-10-22T02:28:43;15.90;99.90
20376;DHT22;10347;51.828;6.466;2022-10-22T02:31:32;15.80;99.90
20376;DHT22;10347;51.828;6.466;2022-10-22T02:34:02;15.80;99.90
20376;DHT22;10347;51.828;6.466;2022-10-22T02:36:30;15.70;99.90
20376;DHT22;10347;51.828;6.466;2022-10-22T02:38:56;15.70;99.90
20376;DHT22;10347;51.828;6.466;2022-10-22T02:41:22;15.70;99.90
20376;DHT22;10347;51.828;6.466;2022-10-22T02:43:52;15.70;99.90
20376;DHT22;10347;51.828;6.466;2022-10-22T02:46:18;15.70;99.90
20376;DHT22;10347;51.828;6.466;2022-10-22T02:48:43;15.70;99.90
20376;DHT22;10347;51.828;6.466;2022-10-22T02:51:09;15.70;99.90
20376;DHT22;10347;51.828;6.466;2022-10-22T02:53:35;15.70;99.90
20376;DHT22;10347;51.828;6.466;2022-10-22T02:56:00;15.70;99.90
20376;DHT22;10347;51.828;6.466;2022-10-22T02:58:26;15.70;99.90
20376;DHT22;10347;51.828;6.466;2022-10-22T03:00:51;15.70;99.90
20376;DHT22;10347;51.828;6.466;2022-10-22T03:03:17;15.70;99.90
20376;DHT22;10347;51.828;6.466;2022-10-22T03:05:42;15.70;99.90
20376;DHT22;10347;51.828;6.466;2022-10-22T03:08:08;15.70;99.90
20376;DHT22;10347;51.828;6.466;2022-10-22T03:10:33;15.70;99.90
20376;DHT22;10347;51.828;6.466;2022-10-22T03:12:59;15.70;99.90
20376;DHT22;10347;51.828;6.466;2022-10-22T03:15:25;15.60;99.90
20376;DHT22;10347;51.828;6.466;2022-10-22T03:17:50;15.70;99.90
20376;DHT22;10347;51.828;6.466;2022-10-22T03:20:16;15.70;99.90
20376;DHT22;10347;51.828;6.466;2022-10-22T03:22:42;15.70;99.90
20376;DHT22;10347;51.828;6.466;2022-10-22T03:25:16;15.70;99.90
20376;DHT22;10347;51.828;6.466;2022-10-22T03:27:44;15.70;99.90
20376;DHT22;10347;51.828;6.466;2022-10-22T03:30:11;15.70;99.90
20376;DHT22;10347;51.828;6.466;2022-10-22T03:32:36;15.70;99.90
20376;DHT22;10347;51.828;6.466;2022-10-22T03:35:03;15.70;99.90
20376;DHT22;10347;51.828;6.466;2022-10-22T03:37:29;15.70;99.90
20376;DHT22;10347;51.828;6.466;2022-10-22T03:39:56;15.60;99.90
20376;DHT22;10347;51.828;6.466;2022-10-22T03:42:22;15.60;99.90
20376;DHT22;10347;51.828;6.466;2022-10-22T03:44:48;15.60;99.90
20376;DHT22;10347;51.828;6.466;2022-10-22T03:47:13;15.60;99.90
20376;DHT22;10347;51.828;6.466;2022-10-22T03:49:39;15.60;99.90
20376;DHT22;10347;51.828;6.466;2022-10-22T03:52:06;15.60;99.90
20376;DHT22;10347;51.828;6.466;2022-10-22T03:54:32;15.70;99.90
20376;DHT22;10347;51.828;6.466;2022-10-22T03:56:58;15.60;99.90
20376;DHT22;10347;51.828;6.466;2022-10-22T03:59:23;15.60;99.90
20376;DHT22;10347;51.828;6.466;2022-10-22T04:01:49;15.60;99.90
20376;DHT22;10347;51.828;6.466;2022-10-22T04:04:14;15.60;99.90
20376;DHT22;10347;51.828;6.466;2022-10-22T04:06:40;15.60;99.90
20376;DHT22;10347;51.828;6.466;2022-10-22T04:09:05;15.60;99.90
20376;DHT22;10347;51.828;6.466;2022-10-22T04:11:31;15.60;99.90
20376;DHT22;10347;51.828;6.466;2022-10-22T04:13:56;15.60;99.90
20376;DHT22;10347;51.828;6.466;2022-10-22T04:16:22;15.60;99.90
20376;DHT22;10347;51.828;6.466;2022-10-22T04:18:49;15.60;99.90
20376;DHT22;10347;51.828;6.466;2022-10-22T04:21:17;15.60;99.90
20376;DHT22;10347;51.828;6.466;2022-10-22T04:23:47;15.60;99.90
20376;DHT22;10347;51.828;6.466;2022-10-22T04:26:14;15.60;99.90
20376;DHT22;10347;51.828;6.466;2022-10-22T04:28:40;15.60;99.90
20376;DHT22;10347;51.828;6.466;2022-10-22T04:31:11;15.60;99.90
20376;DHT22;10347;51.828;6.466;2022-10-22T04:33:37;15.60;99.90
20376;DHT22;10347;51.828;6.466;2022-10-22T04:36:17;15.60;99.90
20376;DHT22;10347;51.828;6.466;2022-10-22T04:38:45;15.60;99.90
20376;DHT22;10347;51.828;6.466;2022-10-22T04:41:17;15.60;99.90
20376;DHT22;10347;51.828;6.466;2022-10-22T04:43:44;15.60;99.90
20376;DHT22;10347;51.828;6.466;2022-10-22T04:46:11;15.60;99.90
20376;DHT22;10347;51.828;6.466;2022-10-22T04:48:38;15.60;99.90
20376;DHT22;10347;51.828;6.466;2022-10-22T04:51:05;15.60;99.90
20376;DHT22;10347;51.828;6.466;2022-10-22T04:53:32;15.60;99.90
20376;DHT22;10347;51.828;6.466;2022-10-22T04:56:14;15.60;99.90
20376;DHT22;10347;51.828;6.466;2022-10-22T04:58:42;15.60;99.90
20376;DHT22;10347;51.828;6.466;2022-10-22T05:01:14;15.50;99.90
20376;DHT22;10347;51.828;6.466;2022-10-22T05:03:40;15.60;99.90
20376;DHT22;10347;51.828;6.466;2022-10-22T05:06:07;15.50;99.90
20376;DHT22;10347;51.828;6.466;2022-10-22T05:08:33;15.50;99.90
20376;DHT22;10347;51.828;6.466;2022-10-22T05:10:58;15.60;99.90
20376;DHT22;10347;51.828;6.466;2022-10-22T05:13:24;15.60;99.90
20376;DHT22;10347;51.828;6.466;2022-10-22T05:15:50;15.50;99.90
20376;DHT22;10347;51.828;6.466;2022-10-22T05:18:15;15.50;99.90
20376;DHT22;10347;51.828;6.466;2022-10-22T05:20:41;15.50;99.90
20376;DHT22;10347;51.828;6.466;2022-10-22T05:23:07;15.60;99.90
20376;DHT22;10347;51.828;6.466;2022-10-22T05:25:36;15.50;99.90
20376;DHT22;10347;51.828;6.466;2022-10-22T05:28:02;15.50;99.90
20376;DHT22;10347;51.828;6.466;2022-10-22T05:30:27;15.50;99.90
20376;DHT22;10347;51.828;6.466;2022-10-22T05:32:53;15.50;99.90
20376;DHT22;10347;51.828;6.466;2022-10-22T05:35:18;15.50;99.90
20376;DHT22;10347;51.828;6.466;2022-10-22T05:37:44;15.50;99.90
20376;DHT22;10347;51.828;6.466;2022-10-22T05:40:10;15.50;99.90
20376;DHT22;10347;51.828;6.466;2022-10-22T05:42:35;15.50;99.90
20376;DHT22;10347;51.828;6.466;2022-10-22T05:45:01;15.50;99.90
20376;DHT22;10347;51.828;6.466;2022-10-22T05:47:28;15.50;99.90
20376;DHT22;10347;51.828;6.466;2022-10-22T05:49:54;15.50;99.90
20376;DHT22;10347;51.828;6.466;2022-10-22T05:52:22;15.50;99.90
20376;DHT22;10347;51.828;6.466;2022-10-22T05:54:47;15.50;99.90
20376;DHT22;10347;51.828;6.466;2022-10-22T05:57:13;15.50;99.90
20376;DHT22;10347;51.828;6.466;2022-10-22T05:59:38;15.50;99.90
20376;DHT22;10347;51.828;6.466;2022-10-22T06:02:04;15.50;99.90
20376;DHT22;10347;51.828;6.466;2022-10-22T06:04:30;15.50;99.90
20376;DHT22;10347;51.828;6.466;2022-10-22T06:06:55;15.50;99.90
20376;DHT22;10347;51.828;6.466;2022-10-22T06:09:30;15.50;99.90
20376;DHT22;10347;51.828;6.466;2022-10-22T06:11:57;15.50;99.90
20376;DHT22;10347;51.828;6.466;2022-10-22T06:14:23;15.50;99.90
20376;DHT22;10347;51.828;6.466;2022-10-22T06:16:49;15.50;99.90
20376;DHT22;10347;51.828;6.466;2022-10-22T06:19:17;15.50;99.90
20376;DHT22;10347;51.828;6.466;2022-10-22T06:21:43;15.50;99.90
20376;DHT22;10347;51.828;6.466;2022-10-22T06:24:09;15.50;99.90
20376;DHT22;10347;51.828;6.466;2022-10-22T06:26:35;15.50;99.90
20376;DHT22;10347;51.828;6.466;2022-10-22T06:29:01;15.40;99.90
20376;DHT22;10347;51.828;6.466;2022-10-22T06:31:28;15.40;99.90
20376;DHT22;10347;51.828;6.466;2022-10-22T06:33:55;15.40;99.90
20376;DHT22;10347;51.828;6.466;2022-10-22T06:36:22;15.40;99.90
20376;DHT22;10347;51.828;6.466;2022-10-22T06:38:51;15.40;99.90
20376;DHT22;10347;51.828;6.466;2022-10-22T06:41:17;15.40;99.90
20376;DHT22;10347;51.828;6.466;2022-10-22T06:43:44;15.40;99.90
20376;DHT22;10347;51.828;6.466;2022-10-22T06:46:10;15.40;99.90
20376;DHT22;10347;51.828;6.466;2022-10-22T06:48:37;15.40;99.90
20376;DHT22;10347;51.828;6.466;2022-10-22T06:51:04;15.40;99.90
20376;DHT22;10347;51.828;6.466;2022-10-22T06:53:30;15.40;99.90
20376;DHT22;10347;51.828;6.466;2022-10-22T06:55:56;15.40;99.90
20376;DHT22;10347;51.828;6.466;2022-10-22T06:58:22;15.50;99.90
20376;DHT22;10347;51.828;6.466;2022-10-22T07:00:47;15.50;99.90
20376;DHT22;10347;51.828;6.466;2022-10-22T07:03:13;15.50;99.90
20376;DHT22;10347;51.828;6.466;2022-10-22T07:05:40;15.50;99.90
20376;DHT22;10347;51.828;6.466;2022-10-22T07:08:06;15.50;99.90
20376;DHT22;10347;51.828;6.466;2022-10-22T07:10:32;15.60;99.90
20376;DHT22;10347;51.828;6.466;2022-10-22T07:12:58;15.60;99.90
20376;DHT22;10347;51.828;6.466;2022-10-22T07:15:23;15.60;99.90
20376;DHT22;10347;51.828;6.466;2022-10-22T07:17:49;15.60;99.90
20376;DHT22;10347;51.828;6.466;2022-10-22T07:20:16;15.60;99.90
20376;DHT22;10347;51.828;6.466;2022-10-22T07:22:43;15.70;99.90
20376;DHT22;10347;51.828;6.466;2022-10-22T07:25:09;15.70;99.90
20376;DHT22;10347;51.828;6.466;2022-10-22T07:27:34;15.70;99.90
20376;DHT22;10347;51.828;6.466;2022-10-22T07:30:00;15.70;99.90
20376;DHT22;10347;51.828;6.466;2022-10-22T07:32:26;15.70;99.90
20376;DHT22;10347;51.828;6.466;2022-10-22T07:34:51;15.80;99.90
20376;DHT22;10347;51.828;6.466;2022-10-22T07:37:17;15.80;99.90
20376;DHT22;10347;51.828;6.466;2022-10-22T07:39:49;15.80;99.90
20376;DHT22;10347;51.828;6.466;2022-10-22T07:42:15;15.90;99.90
20376;DHT22;10347;51.828;6.466;2022-10-22T07:44:40;15.90;99.90
20376;DHT22;10347;51.828;6.466;2022-10-22T07:47:06;15.90;99.90
20376;DHT22;10347;51.828;6.466;2022-10-22T07:49:32;15.90;99.90
20376;DHT22;10347;51.828;6.466;2022-10-22T07:51:57;15.90;99.90
20376;DHT22;10347;51.828;6.466;2022-10-22T07:54:23;16.00;99.90
20376;DHT22;10347;51.828;6.466;2022-10-22T07:56:49;16.00;99.90
20376;DHT22;10347;51.828;6.466;2022-10-22T07:59:14;16.00;99.90
20376;DHT22;10347;51.828;6.466;2022-10-22T08:01:40;16.00;99.90
20376;DHT22;10347;51.828;6.466;2022-10-22T08:04:05;16.00;99.90
20376;DHT22;10347;51.828;6.466;2022-10-22T08:06:34;16.00;99.90
20376;DHT22;10347;51.828;6.466;2022-10-22T08:09:00;16.10;99.90
20376;DHT22;10347;51.828;6.466;2022-10-22T08:11:26;16.10;99.90
20376;DHT22;10347;51.828;6.466;2022-10-22T08:13:52;16.10;99.90
20376;DHT22;10347;51.828;6.466;2022-10-22T08:16:18;16.10;99.90
20376;DHT22;10347;51.828;6.466;2022-10-22T08:18:43;16.10;99.90
20376;DHT22;10347;51.828;6.466;2022-10-22T08:21:10;16.20;99.90
20376;DHT22;10347;51.828;6.466;2022-10-22T08:23:36;16.20;99.90
20376;DHT22;10347;51.828;6.466;2022-10-22T08:26:02;16.20;99.90
20376;DHT22;10347;51.828;6.466;2022-10-22T08:28:28;16.20;99.90
20376;DHT22;10347;51.828;6.466;2022-10-22T08:30:55;16.20;99.90
20376;DHT22;10347;51.828;6.466;2022-10-22T08:33:21;16.20;99.90
20376;DHT22;10347;51.828;6.466;2022-10-22T08:35:48;16.30;99.90
20376;DHT22;10347;51.828;6.466;2022-10-22T08:38:14;16.30;99.90
20376;DHT22;10347;51.828;6.466;2022-10-22T08:40:39;16.30;99.90
20376;DHT22;10347;51.828;6.466;2022-10-22T08:43:22;16.30;99.90
20376;DHT22;10347;51.828;6.466;2022-10-22T08:49:00;16.30;99.90
20376;DHT22;10347;51.828;6.466;2022-10-22T08:51:32;16.30;99.90
20376;DHT22;10347;51.828;6.466;2022-10-22T08:54:13;16.40;99.90
20376;DHT22;10347;51.828;6.466;2022-10-22T08:56:49;16.40;99.90
20376;DHT22;10347;51.828;6.466;2022-10-22T08:59:24;16.40;99.90
20376;DHT22;10347;51.828;6.466;2022-10-22T09:01:53;16.40;99.90
20376;DHT22;10347;51.828;6.466;2022-10-22T09:06:53;16.50;99.90
20376;DHT22;10347;51.828;6.466;2022-10-22T09:09:19;16.60;99.90
20376;DHT22;10347;51.828;6.466;2022-10-22T09:11:49;16.60;99.90
20376;DHT22;10347;51.828;6.466;2022-10-22T09:14:17;16.70;99.90
20376;DHT22;10347;51.828;6.466;2022-10-22T09:19:28;16.80;99.90
20376;DHT22;10347;51.828;6.466;2022-10-22T09:22:00;16.80;99.90
20376;DHT22;10347;51.828;6.466;2022-10-22T09:24:58;16.90;99.90
20376;DHT22;10347;51.828;6.466;2022-10-22T09:27:30;17.00;99.90
20376;DHT22;10347;51.828;6.466;2022-10-22T09:29:56;16.90;99.90
20376;DHT22;10347;51.828;6.466;2022-10-22T09:32:22;17.00;99.90
20376;DHT22;10347;51.828;6.466;2022-10-22T09:34:49;17.00;99.90
20376;DHT22;10347;51.828;6.466;2022-10-22T09:37:19;17.10;99.90
20376;DHT22;10347;51.828;6.466;2022-10-22T09:39:53;17.20;99.90
20376;DHT22;10347;51.828;6.466;2022-10-22T09:42:20;17.20;99.90
20376;DHT22;10347;51.828;6.466;2022-10-22T09:44:52;17.30;99.90
20376;DHT22;10347;51.828;6.466;2022-10-22T09:47:33;17.30;99.90
20376;DHT22;10347;51.828;6.466;2022-10-22T09:50:28;17.40;99.90
20376;DHT22;10347;51.828;6.466;2022-10-22T09:55:24;17.40;99.90
20376;DHT22;10347;51.828;6.466;2022-10-22T09:57:55;17.40;99.90
20376;DHT22;10347;51.828;6.466;2022-10-22T10:00:23;17.50;99.90
20376;DHT22;10347;51.828;6.466;2022-10-22T10:02:57;17.40;99.90
20376;DHT22;10347;51.828;6.466;2022-10-22T10:05:29;17.40;99.90
20376;DHT22;10347;51.828;6.466;2022-10-22T10:07:55;17.50;99.90
20376;DHT22;10347;51.828;6.466;2022-10-22T10:13:07;17.50;99.90
20376;DHT22;10347;51.828;6.466;2022-10-22T10:15:42;17.50;99.90
20376;DHT22;10347;51.828;6.466;2022-10-22T10:18:24;17.50;99.90
20376;DHT22;10347;51.828;6.466;2022-10-22T10:21:05;17.50;99.90
20376;DHT22;10347;51.828;6.466;2022-10-22T10:24:21;17.50;99.90
20376;DHT22;10347;51.828;6.466;2022-10-22T10:26:54;17.50;99.90
20376;DHT22;10347;51.828;6.466;2022-10-22T10:29:53;17.50;99.90
20376;DHT22;10347;51.828;6.466;2022-10-22T10:43:58;17.50;99.90
20376;DHT22;10347;51.828;6.466;2022-10-22T10:46:37;17.50;99.90
20376;DHT22;10347;51.828;6.466;2022-10-22T10:49:09;17.50;99.90
20376;DHT22;10347;51.828;6.466;2022-10-22T10:51:52;17.50;99.90
20376;DHT22;10347;51.828;6.466;2022-10-22T10:54:34;17.50;99.90
20376;DHT22;10347;51.828;6.466;2022-10-22T10:57:28;17.50;99.90
20376;DHT22;10347;51.828;6.466;2022-10-22T10:59:59;17.50;99.90
20376;DHT22;10347;51.828;6.466;2022-10-22T11:10:58;17.50;99.90
20376;DHT22;10347;51.828;6.466;2022-10-22T11:13:33;17.50;99.90
20376;DHT22;10347;51.828;6.466;2022-10-22T11:16:24;17.50;99.90
20376;DHT22;10347;51.828;6.466;2022-10-22T11:19:08;17.50;99.90
20376;DHT22;10347;51.828;6.466;2022-10-22T11:24:19;17.60;99.90
20376;DHT22;10347;51.828;6.466;2022-10-22T11:26:52;17.70;99.90
20376;DHT22;10347;51.828;6.466;2022-10-22T11:29:24;17.60;99.90
20376;DHT22;10347;51.828;6.466;2022-10-22T11:31:51;17.70;99.90
20376;DHT22;10347;51.828;6.466;2022-10-22T11:34:28;17.70;99.90
20376;DHT22;10347;51.828;6.466;2022-10-22T11:36:57;17.70;99.90
20376;DHT22;10347;51.828;6.466;2022-10-22T11:42:39;17.80;99.90
20376;DHT22;10347;51.828;6.466;2022-10-22T11:50:56;17.80;99.90
20376;DHT22;10347;51.828;6.466;2022-10-22T11:55:51;17.90;99.90
20376;DHT22;10347;51.828;6.466;2022-10-22T11:58:31;18.00;99.90
20376;DHT22;10347;51.828;6.466;2022-10-22T12:08:30;18.20;99.90
20376;DHT22;10347;51.828;6.466;2022-10-22T12:13:26;18.30;99.90
20376;DHT22;10347;51.828;6.466;2022-10-22T12:15:57;18.30;99.90
20376;DHT22;10347;51.828;6.466;2022-10-22T12:18:26;18.40;99.90
20376;DHT22;10347;51.828;6.466;2022-10-22T12:20:55;18.40;99.90
20376;DHT22;10347;51.828;6.466;2022-10-22T12:23:25;18.40;99.90
20376;DHT22;10347;51.828;6.466;2022-10-22T12:25:53;18.50;99.90
20376;DHT22;10347;51.828;6.466;2022-10-22T12:28:19;18.50;99.90
20376;DHT22;10347;51.828;6.466;2022-10-22T12:30:44;18.50;99.90
20376;DHT22;10347;51.828;6.466;2022-10-22T12:33:22;18.50;99.90
20376;DHT22;10347;51.828;6.466;2022-10-22T12:35:49;18.50;99.90
20376;DHT22;10347;51.828;6.466;2022-10-22T12:38:21;18.50;99.90
20376;DHT22;10347;51.828;6.466;2022-10-22T12:40:49;18.50;99.90
20376;DHT22;10347;51.828;6.466;2022-10-22T12:43:17;18.60;99.90
20376;DHT22;10347;51.828;6.466;2022-10-22T12:45:46;18.60;99.90
20376;DHT22;10347;51.828;6.466;2022-10-22T12:48:18;18.60;99.90
20376;DHT22;10347;51.828;6.466;2022-10-22T12:50:47;18.60;99.90
20376;DHT22;10347;51.828;6.466;2022-10-22T12:55:54;18.60;99.90
20376;DHT22;10347;51.828;6.466;2022-10-22T12:58:24;18.60;99.90
20376;DHT22;10347;51.828;6.466;2022-10-22T13:00:55;18.70;99.90
20376;DHT22;10347;51.828;6.466;2022-10-22T13:05:50;18.60;99.90
20376;DHT22;10347;51.828;6.466;2022-10-22T13:08:18;18.60;99.90
20376;DHT22;10347;51.828;6.466;2022-10-22T13:10:50;18.70;99.90
20376;DHT22;10347;51.828;6.466;2022-10-22T13:13:33;18.60;99.90
20376;DHT22;10347;51.828;6.466;2022-10-22T13:16:19;18.60;99.90
20376;DHT22;10347;51.828;6.466;2022-10-22T13:18:46;18.60;99.90
20376;DHT22;10347;51.828;6.466;2022-10-22T13:24:21;18.60;99.90
20376;DHT22;10347;51.828;6.466;2022-10-22T13:26:49;18.70;99.90
20376;DHT22;10347;51.828;6.466;2022-10-22T13:29:17;18.60;99.90
20376;DHT22;10347;51.828;6.466;2022-10-22T13:31:46;18.60;99.90
20376;DHT22;10347;51.828;6.466;2022-10-22T13:34:16;18.60;99.90
20376;DHT22;10347;51.828;6.466;2022-10-22T13:36:42;18.70;99.90
20376;DHT22;10347;51.828;6.466;2022-10-22T13:39:22;18.70;99.90
20376;DHT22;10347;51.828;6.466;2022-10-22T13:41:48;18.70;99.90
20376;DHT22;10347;51.828;6.466;2022-10-22T13:44:17;18.70;99.90
20376;DHT22;10347;51.828;6.466;2022-10-22T13:46:44;18.70;99.90
20376;DHT22;10347;51.828;6.466;2022-10-22T13:49:16;18.70;99.90
20376;DHT22;10347;51.828;6.466;2022-10-22T13:51:42;18.70;99.90
20376;DHT22;10347;51.828;6.466;2022-10-22T13:54:15;18.70;99.90
20376;DHT22;10347;51.828;6.466;2022-10-22T13:56:42;18.70;99.90
20376;DHT22;10347;51.828;6.466;2022-10-22T13:59:09;18.80;99.90
20376;DHT22;10347;51.828;6.466;2022-10-22T14:01:35;18.80;99.90
20376;DHT22;10347;51.828;6.466;2022-10-22T14:04:03;18.80;99.90
20376;DHT22;10347;51.828;6.466;2022-10-22T14:06:30;18.80;99.90
20376;DHT22;10347;51.828;6.466;2022-10-22T14:08:59;18.80;99.90
20376;DHT22;10347;51.828;6.466;2022-10-22T14:11:25;18.80;99.90
20376;DHT22;10347;51.828;6.466;2022-10-22T14:13:55;18.80;99.90
20376;DHT22;10347;51.828;6.466;2022-10-22T14:16:26;18.80;99.90
20376;DHT22;10347;51.828;6.466;2022-10-22T14:18:53;18.80;99.90
20376;DHT22;10347;51.828;6.466;2022-10-22T14:21:19;18.90;99.90
20376;DHT22;10347;51.828;6.466;2022-10-22T14:23:46;18.90;99.90
20376;DHT22;10347;51.828;6.466;2022-10-22T14:26:26;18.90;99.90
20376;DHT22;10347;51.828;6.466;2022-10-22T14:28:54;19.00;99.90
20376;DHT22;10347;51.828;6.466;2022-10-22T14:31:20;19.00;99.90
20376;DHT22;10347;51.828;6.466;2022-10-22T14:33:46;18.90;99.90
20376;DHT22;10347;51.828;6.466;2022-10-22T14:36:13;19.00;99.90
20376;DHT22;10347;51.828;6.466;2022-10-22T14:38:40;19.10;99.90
20376;DHT22;10347;51.828;6.466;2022-10-22T14:41:27;19.10;99.90
20376;DHT22;10347;51.828;6.466;2022-10-22T14:43:53;19.10;99.90
20376;DHT22;10347;51.828;6.466;2022-10-22T14:46:20;19.10;99.90
20376;DHT22;10347;51.828;6.466;2022-10-22T14:48:45;19.20;99.90
20376;DHT22;10347;51.828;6.466;2022-10-22T14:51:13;19.20;99.90
20376;DHT22;10347;51.828;6.466;2022-10-22T14:53:39;19.20;99.90
20376;DHT22;10347;51.828;6.466;2022-10-22T14:56:05;19.30;99.90
20376;DHT22;10347;51.828;6.466;2022-10-22T14:58:30;19.30;99.90
20376;DHT22;10347;51.828;6.466;2022-10-22T15:00:56;19.30;99.90
20376;DHT22;10347;51.828;6.466;2022-10-22T15:03:21;19.30;99.90
20376;DHT22;10347;51.828;6.466;2022-10-22T15:05:50;19.30;99.90
20376;DHT22;10347;51.828;6.466;2022-10-22T15:08:18;19.30;99.90
20376;DHT22;10347;51.828;6.466;2022-10-22T15:10:44;19.40;99.90
20376;DHT22;10347;51.828;6.466;2022-10-22T15:13:09;19.30;99.90
20376;DHT22;10347;51.828;6.466;2022-10-22T15:15:35;19.30;99.90
20376;DHT22;10347;51.828;6.466;2022-10-22T15:18:01;19.40;99.90
20376;DHT22;10347;51.828;6.466;2022-10-22T15:20:26;19.30;99.90
20376;DHT22;10347;51.828;6.466;2022-10-22T15:22:52;19.40;99.90
20376;DHT22;10347;51.828;6.466;2022-10-22T15:25:17;19.30;99.90
20376;DHT22;10347;51.828;6.466;2022-10-22T15:27:43;19.30;99.90
20376;DHT22;10347;51.828;6.466;2022-10-22T15:30:09;19.30;99.90
20376;DHT22;10347;51.828;6.466;2022-10-22T15:32:35;19.30;99.90
20376;DHT22;10347;51.828;6.466;2022-10-22T15:35:01;19.30;99.90
20376;DHT22;10347;51.828;6.466;2022-10-22T15:37:26;19.30;99.90
20376;DHT22;10347;51.828;6.466;2022-10-22T15:39:52;19.30;99.90
20376;DHT22;10347;51.828;6.466;2022-10-22T15:42:17;19.30;99.90
20376;DHT22;10347;51.828;6.466;2022-10-22T15:44:43;19.30;99.90
20376;DHT22;10347;51.828;6.466;2022-10-22T15:47:09;19.30;99.90
20376;DHT22;10347;51.828;6.466;2022-10-22T15:49:37;19.30;99.90
20376;DHT22;10347;51.828;6.466;2022-10-22T15:52:04;19.30;99.90
20376;DHT22;10347;51.828;6.466;2022-10-22T15:54:30;19.20;99.90
20376;DHT22;10347;51.828;6.466;2022-10-22T15:56:57;19.20;99.90
20376;DHT22;10347;51.828;6.466;2022-10-22T15:59:23;19.20;99.90
20376;DHT22;10347;51.828;6.466;2022-10-22T16:01:49;19.20;99.90
20376;DHT22;10347;51.828;6.466;2022-10-22T16:04:14;19.20;99.90
20376;DHT22;10347;51.828;6.466;2022-10-22T16:06:43;19.20;99.90
20376;DHT22;10347;51.828;6.466;2022-10-22T16:09:21;19.20;99.90
20376;DHT22;10347;51.828;6.466;2022-10-22T16:11:47;19.20;99.90
20376;DHT22;10347;51.828;6.466;2022-10-22T16:14:15;19.20;99.90
20376;DHT22;10347;51.828;6.466;2022-10-22T16:16:44;19.20;99.90
20376;DHT22;10347;51.828;6.466;2022-10-22T16:19:14;19.10;99.90
20376;DHT22;10347;51.828;6.466;2022-10-22T16:21:40;19.10;99.90
20376;DHT22;10347;51.828;6.466;2022-10-22T16:24:07;19.10;99.90
20376;DHT22;10347;51.828;6.466;2022-10-22T16:26:33;19.10;99.90
20376;DHT22;10347;51.828;6.466;2022-10-22T16:28:59;19.00;99.90
20376;DHT22;10347;51.828;6.466;2022-10-22T16:31:24;19.00;99.90
20376;DHT22;10347;51.828;6.466;2022-10-22T16:33:50;19.00;99.90
20376;DHT22;10347;51.828;6.466;2022-10-22T16:36:18;19.00;99.90
20376;DHT22;10347;51.828;6.466;2022-10-22T16:38:44;18.90;99.90
20376;DHT22;10347;51.828;6.466;2022-10-22T16:41:24;18.90;99.90
20376;DHT22;10347;51.828;6.466;2022-10-22T16:43:53;18.90;99.90
20376;DHT22;10347;51.828;6.466;2022-10-22T16:46:20;18.90;99.90
20376;DHT22;10347;51.828;6.466;2022-10-22T16:48:47;18.90;99.90
20376;DHT22;10347;51.828;6.466;2022-10-22T16:51:18;18.90;99.90
20376;DHT22;10347;51.828;6.466;2022-10-22T16:53:44;18.80;99.90
20376;DHT22;10347;51.828;6.466;2022-10-22T16:56:11;18.80;99.90
20376;DHT22;10347;51.828;6.466;2022-10-22T16:58:38;18.80;99.90
20376;DHT22;10347;51.828;6.466;2022-10-22T17:01:08;18.70;99.90
20376;DHT22;10347;51.828;6.466;2022-10-22T17:03:35;18.70;99.90
20376;DHT22;10347;51.828;6.466;2022-10-22T17:06:02;18.70;99.90
20376;DHT22;10347;51.828;6.466;2022-10-22T17:08:37;18.60;99.90